Explora — IXWQ — position and weather

sailwx.info

Track history (hours):
 
Tides and Currents Weather Stations Pressure Air Temp Water Temp Dewpoint Dewpoint Depression Visibility Wind Speed Wind Dir Waves Ship Positions

Oceanographic research ship Explora (Italy)

Detailed information on ship capabilities available from University of Delaware's Ocean Information Center.

Last reported at 2019-Jun-19 20:28 UTC. Time now 2019-Jun-19 21:46 UTC.
Position N 37°39' W 009°22'.

Length 73 m; draft 5.5 m.

Type: . MMSI: 247028700.

Date/timePositionNaut miles runAvg speedWind from/ knotsBaromVisibWave heightAir tempDewpointWater temp
2019-Jun-19 20:28N 37°39' W 009°22'1 2.5
2019-Jun-19 20:00N 37°40' W 009°21'1 2.7
2019-Jun-19 19:30N 37°41' W 009°20'1 2.9
2019-Jun-19 19:00N 37°42' W 009°19'10 2.3
2019-Jun-19 14:27N 37°33' W 009°26'1 0.1
2019-Jun-18 15:33N 37°34' W 009°24'0 0.0
2019-Jun-16 16:23N 37°34' W 009°25'2 2.5
2019-Jun-16 15:34N 37°36' W 009°24'0 2.4
2019-Jun-16 15:25N 37°36' W 009°23'1 2.4
2019-Jun-16 14:59N 37°37' W 009°23'3 2.2
2019-Jun-16 13:38N 37°40' W 009°21'1 2.1
2019-Jun-16 13:24N 37°40' W 009°21'1 2.5
2019-Jun-16 12:53N 37°41' W 009°20'1 2.7
2019-Jun-16 12:30N 37°42' W 009°19'1 2.7
2019-Jun-16 11:59N 37°43' W 009°18'1 2.8
2019-Jun-16 11:30N 37°44' W 009°17'1 2.8
2019-Jun-16 11:00N 37°45' W 009°15'2 3.1
2019-Jun-16 10:30N 37°46' W 009°14'2 3.4
2019-Jun-16 10:00N 37°48' W 009°13'2 3.5
2019-Jun-16 09:30N 37°49' W 009°11'2 3.5
2019-Jun-16 09:00N 37°50' W 009°10'2 3.2
2019-Jun-16 08:30N 37°52' W 009°09'2 3.2
2019-Jun-16 08:00N 37°53' W 009°07'1 2.8
2019-Jun-16 07:31N 37°54' W 009°08'1 2.4
2019-Jun-16 07:00N 37°54' W 009°06'2 3.8
2019-Jun-16 06:30N 37°56' W 009°04'2 3.7
2019-Jun-16 06:00N 37°57' W 009°03'2 3.9
2019-Jun-16 05:30N 37°59' W 009°01'2 3.9
2019-Jun-16 05:00N 38°00' W 008°60'1 2.1
2019-Jun-16 04:30N 38°01' W 008°59'2 3.3
2019-Jun-16 04:00N 37°60' W 009°00'2 3.5
2019-Jun-16 03:30N 37°58' W 009°02'1 2.8
2019-Jun-16 03:00N 37°57' W 009°03'1 2.8
2019-Jun-16 02:30N 37°56' W 009°04'2 3.6
2019-Jun-16 02:00N 37°55' W 009°06'2 3.2
2019-Jun-16 01:30N 37°54' W 009°07'1 2.8
2019-Jun-16 01:00N 37°53' W 009°08'1 2.5
2019-Jun-16 00:30N 37°52' W 009°09'1 2.4
2019-Jun-16 00:00N 37°51' W 009°10'1 2.4
2019-Jun-15 23:30N 37°50' W 009°11'1 2.4
2019-Jun-15 23:00N 37°49' W 009°12'1 2.3
2019-Jun-15 22:30N 37°48' W 009°13'1 2.3
2019-Jun-15 22:00N 37°47' W 009°14'1 2.2
2019-Jun-15 21:30N 37°46' W 009°15'1 2.2
2019-Jun-15 20:55N 37°45' W 009°16'6 2.3
2019-Jun-15 18:30N 37°41' W 009°20'1 1.6
2019-Jun-15 17:37N 37°39' W 009°21'1 4.8
2019-Jun-15 17:28N 37°40' W 009°21'0 0.5
2019-Jun-15 17:00N 37°40' W 009°21'0 0.1
2019-Jun-15 16:24N 37°40' W 009°21'0 0.5
2019-Jun-15 15:53N 37°40' W 009°21'0 0.8
2019-Jun-15 15:24N 37°41' W 009°21'0 0.9
2019-Jun-15 15:00N 37°41' W 009°20'2 0.3
2019-Jun-15 07:59N 37°39' W 009°22'1 2.5
2019-Jun-15 07:29N 37°40' W 009°21'1 1.2
2019-Jun-15 06:38N 37°40' W 009°22'0 2.4
2019-Jun-15 06:29N 37°40' W 009°22'1 3.0
2019-Jun-15 06:00N 37°41' W 009°21'0 0.1
2019-Jun-15 05:29N 37°41' W 009°21'3 0.3
2019-Jun-14 17:26N 37°38' W 009°21'4 8.7
2019-Jun-14 17:00N 37°41' W 009°18'4 8.7
2019-Jun-14 16:30N 37°44' W 009°15'4 8.5
2019-Jun-14 16:00N 37°47' W 009°12'510.2
2019-Jun-14 15:30N 37°51' W 009°07'510.5
2019-Jun-14 15:00N 37°54' W 009°02'510.8
2019-Jun-14 14:30N 37°58' W 008°57'4 8.4
2019-Jun-14 14:00N 38°01' W 008°54'1 1.5
2019-Jun-14 13:30N 38°00' W 008°53'1 1.4
2019-Jun-14 13:00N 37°60' W 008°53'0 0.5
2019-Jun-14 12:30N 37°60' W 008°54'1 1.0
2019-Jun-14 12:00N 37°60' W 008°53'1 1.3
2019-Jun-14 11:30N 37°60' W 008°53'1 2.5
2019-Jun-14 11:00N 38°01' W 008°53'0 0.7
2019-Jun-14 10:30N 38°01' W 008°54'1 2.7
2019-Jun-14 10:00N 38°01' W 008°55'1 2.7
2019-Jun-14 09:30N 38°01' W 008°57'1 2.6
2019-Jun-14 09:00N 38°01' W 008°55'1 2.2
2019-Jun-14 08:30N 38°01' W 008°54'1 2.4
2019-Jun-14 08:01N 38°00' W 008°53'1 2.8
2019-Jun-14 07:30N 38°00' W 008°55'2 5.0
2019-Jun-14 07:00N 38°01' W 008°58'1 2.6
2019-Jun-14 06:30N 38°01' W 008°59'1 2.9
2019-Jun-14 06:00N 37°60' W 009°00'1 2.8
2019-Jun-14 05:30N 37°59' W 009°02'1 2.8
2019-Jun-14 05:00N 37°58' W 009°03'1 2.9
2019-Jun-14 04:30N 37°57' W 009°04'1 2.8
2019-Jun-14 04:00N 37°55' W 009°05'1 2.8
2019-Jun-14 03:30N 37°54' W 009°06'1 2.7
2019-Jun-14 03:00N 37°53' W 009°07'1 2.5
2019-Jun-14 02:30N 37°52' W 009°08'1 2.5
2019-Jun-14 02:00N 37°51' W 009°09'1 2.7
2019-Jun-14 01:30N 37°50' W 009°10'2 3.2
2019-Jun-14 01:00N 37°49' W 009°12'1 3.0
2019-Jun-14 00:30N 37°48' W 009°13'1 2.8
2019-Jun-14 00:00N 37°47' W 009°14'1 2.7
2019-Jun-13 23:29N 37°46' W 009°15'1 2.6
2019-Jun-13 22:56N 37°45' W 009°16'7 2.6
2019-Jun-13 20:15N 37°39' W 009°22'1 2.6
2019-Jun-13 19:53N 37°40' W 009°21'1 2.6
2019-Jun-13 19:30N 37°41' W 009°20'2 3.0
2019-Jun-13 19:00N 37°42' W 009°19'2 3.0
2019-Jun-13 18:30N 37°43' W 009°18'2 3.0
2019-Jun-13 18:00N 37°44' W 009°17'1 2.7
2019-Jun-13 17:30N 37°45' W 009°16'2 3.0
2019-Jun-13 17:00N 37°46' W 009°14'1 2.9
2019-Jun-13 16:30N 37°48' W 009°13'1 2.6
2019-Jun-13 16:00N 37°49' W 009°12'1 2.2
2019-Jun-13 15:30N 37°49' W 009°11'1 2.6
2019-Jun-13 15:00N 37°50' W 009°10'1 2.7
2019-Jun-13 14:30N 37°51' W 009°09'1 2.6
2019-Jun-13 14:00N 37°52' W 009°08'1 2.6
2019-Jun-13 13:30N 37°53' W 009°07'1 2.6
2019-Jun-13 13:00N 37°54' W 009°06'2 3.2
2019-Jun-13 12:30N 37°56' W 009°05'2 3.1
2019-Jun-13 12:00N 37°57' W 009°03'2 3.1
2019-Jun-13 11:30N 37°58' W 009°02'2 3.2
2019-Jun-13 11:00N 37°59' W 009°01'2 3.2
2019-Jun-13 10:30N 38°01' W 008°59'0 0.2
2019-Jun-13 10:00N 38°01' W 008°60'2 3.1
2019-Jun-13 09:30N 38°01' W 008°58'2 3.2
2019-Jun-13 09:00N 38°01' W 008°56'1 2.9
2019-Jun-13 08:30N 38°01' W 008°54'1 2.9
2019-Jun-13 08:00N 37°60' W 008°53'1 1.2
2019-Jun-13 07:30N 38°00' W 008°53'1 1.4
2019-Jun-13 07:00N 37°60' W 008°53'1 2.1
2019-Jun-13 06:31N 37°59' W 008°54'0 0.7
2019-Jun-13 06:00N 37°59' W 008°53'0 0.4
2019-Jun-13 05:30N 37°60' W 008°53'0 0.3
2019-Jun-13 05:00N 37°60' W 008°53'1 2.0
2019-Jun-13 04:30N 38°01' W 008°54'2 3.1
2019-Jun-13 04:00N 38°02' W 008°55'1 1.1
2019-Jun-13 03:30N 38°01' W 008°54'1 1.1
2019-Jun-13 03:00N 38°01' W 008°54'1 1.3
2019-Jun-13 02:30N 38°00' W 008°54'1 1.3
2019-Jun-13 02:00N 37°60' W 008°53'1 1.2
2019-Jun-13 01:30N 38°00' W 008°53'2 3.1
2019-Jun-13 01:00N 38°02' W 008°54'0 0.9
2019-Jun-13 00:30N 38°02' W 008°55'1 1.8
2019-Jun-13 00:00N 38°01' W 008°55'1 1.7
2019-Jun-12 23:30N 37°60' W 008°54'1 1.8
2019-Jun-12 23:00N 37°60' W 008°53'1 2.3
2019-Jun-12 22:30N 38°01' W 008°53'1 2.6
2019-Jun-12 22:00N 38°01' W 008°54'1 1.9
2019-Jun-12 21:30N 38°02' W 008°55'0 0.8
2019-Jun-12 21:00N 38°02' W 008°54'1 1.0
2019-Jun-12 20:30N 38°02' W 008°54'0 0.9
2019-Jun-12 20:00N 38°01' W 008°54'1 1.3
2019-Jun-12 19:30N 38°01' W 008°54'1 1.2
2019-Jun-12 19:00N 38°00' W 008°54'1 1.1
2019-Jun-12 18:30N 37°60' W 008°53'1 1.1
2019-Jun-12 18:01N 37°59' W 008°53'3 6.0
2019-Jun-12 17:30N 38°02' W 008°54'1 1.2
2019-Jun-12 17:00N 38°02' W 008°54'1 1.2
2019-Jun-12 16:30N 38°01' W 008°54'1 1.5
2019-Jun-12 16:00N 38°00' W 008°53'1 1.1
2019-Jun-12 15:30N 37°60' W 008°53'1 1.0
2019-Jun-12 15:00N 37°60' W 008°53'2 3.2
2019-Jun-12 14:30N 38°01' W 008°53'3 6.9
2019-Jun-12 14:00N 38°04' W 008°55'2 3.1
2019-Jun-12 13:30N 38°06' W 008°55'2 3.6
2019-Jun-12 13:00N 38°08' W 008°56'2 4.5
2019-Jun-12 12:30N 38°10' W 008°57'2 4.9
2019-Jun-12 12:00N 38°12' W 008°58'4 7.4
2019-Jun-12 11:30N 38°15' W 008°59'1 2.7
2019-Jun-12 11:00N 38°14' W 008°59'1 2.8
2019-Jun-12 10:30N 38°13' W 008°59'1 2.7
2019-Jun-12 10:00N 38°12' W 008°58'1 2.4
2019-Jun-12 09:30N 38°10' W 008°57'1 2.2
2019-Jun-12 09:00N 38°09' W 008°57'1 2.1
2019-Jun-12 08:30N 38°09' W 008°56'1 1.9
2019-Jun-12 08:00N 38°08' W 008°55'1 1.8
2019-Jun-12 07:30N 38°07' W 008°55'1 1.7
2019-Jun-12 07:00N 38°06' W 008°55'1 1.8
2019-Jun-12 06:30N 38°05' W 008°54'1 2.9
2019-Jun-12 06:00N 38°06' W 008°55'2 4.0
2019-Jun-12 05:30N 38°08' W 008°56'2 4.0
2019-Jun-12 05:01N 38°10' W 008°57'1 2.6
2019-Jun-12 04:30N 38°09' W 008°56'1 2.3
2019-Jun-12 04:00N 38°08' W 008°56'1 1.9
2019-Jun-12 03:30N 38°07' W 008°55'1 1.3
2019-Jun-12 03:01N 38°06' W 008°55'4 3.8
2019-Jun-12 02:00N 38°10' W 008°57'2 3.7
2019-Jun-12 01:30N 38°12' W 008°58'2 3.5
2019-Jun-12 01:00N 38°13' W 008°59'2 3.6
2019-Jun-12 00:30N 38°15' W 008°60'2 3.7
2019-Jun-12 00:00N 38°17' W 009°01'2 3.7
2019-Jun-11 23:30N 38°19' W 009°01'2 3.9
2019-Jun-11 23:00N 38°20' W 009°02'0 0.5
2019-Jun-11 22:30N 38°20' W 009°02'1 2.0
2019-Jun-11 22:00N 38°19' W 009°02'1 2.4
2019-Jun-11 21:30N 38°18' W 009°01'1 2.3
2019-Jun-11 21:00N 38°17' W 009°01'1 2.1
2019-Jun-11 20:30N 38°16' W 009°00'1 2.1
2019-Jun-11 20:00N 38°15' W 008°60'1 2.2
2019-Jun-11 19:30N 38°14' W 008°59'1 2.1
2019-Jun-11 19:00N 38°13' W 008°59'1 1.9
2019-Jun-11 18:30N 38°12' W 008°58'1 2.0
2019-Jun-11 18:00N 38°11' W 008°58'1 2.3
2019-Jun-11 17:30N 38°10' W 008°57'1 2.0
2019-Jun-11 17:00N 38°09' W 008°56'1 1.5
2019-Jun-11 16:30N 38°09' W 008°56'1 1.8
2019-Jun-11 16:00N 38°08' W 008°56'1 1.8
2019-Jun-11 15:30N 38°07' W 008°56'1 1.5
2019-Jun-11 15:00N 38°06' W 008°56'1 1.6
2019-Jun-11 14:30N 38°05' W 008°55'1 1.5
2019-Jun-11 14:00N 38°05' W 008°55'1 1.7
2019-Jun-11 13:30N 38°04' W 008°55'1 1.9
2019-Jun-11 13:00N 38°03' W 008°55'1 2.0
2019-Jun-11 12:30N 38°02' W 008°54'1 2.4
2019-Jun-11 12:00N 38°01' W 008°54'1 1.2
2019-Jun-11 11:30N 38°00' W 008°54'1 1.5
2019-Jun-11 11:00N 37°60' W 008°53'1 1.0
2019-Jun-11 10:30N 37°59' W 008°53'1 2.0
2019-Jun-11 10:00N 37°60' W 008°52'1 1.1
2019-Jun-11 09:30N 37°60' W 008°52'0 0.9
2019-Jun-11 09:00N 37°59' W 008°53'1 1.6
2019-Jun-11 08:30N 37°60' W 008°52'1 1.1
2019-Jun-11 08:00N 37°59' W 008°53'1 1.5
2019-Jun-11 07:30N 38°00' W 008°52'1 2.1
2019-Jun-11 07:00N 37°59' W 008°53'0 0.3
2019-Jun-11 06:30N 37°59' W 008°53'1 1.7
2019-Jun-11 06:01N 37°60' W 008°53'1 1.3
2019-Jun-11 05:30N 37°60' W 008°52'0 0.9
2019-Jun-11 05:00N 37°60' W 008°53'0 0.5
2019-Jun-11 04:30N 37°60' W 008°53'0 0.8
2019-Jun-11 04:00N 37°60' W 008°53'0 0.3
2019-Jun-11 03:30N 37°60' W 008°53'1 1.1
2019-Jun-11 03:00N 37°60' W 008°52'0 1.0
2019-Jun-11 02:31N 38°00' W 008°52'1 1.2
2019-Jun-11 02:00N 37°60' W 008°53'0 0.8
2019-Jun-11 01:30N 37°60' W 008°54'0 0.7
2019-Jun-11 01:01N 37°60' W 008°54'1 1.8
2019-Jun-11 00:30N 38°00' W 008°53'1 1.2
2019-Jun-11 00:00N 37°60' W 008°54'1 1.6
2019-Jun-10 23:30N 37°59' W 008°53'0 1.0
2019-Jun-10 23:00N 37°60' W 008°53'1 1.4
2019-Jun-10 22:31N 38°00' W 008°53'0 0.8
2019-Jun-10 22:00N 37°60' W 008°53'2 3.8
2019-Jun-10 21:30N 38°01' W 008°55'4 7.2
2019-Jun-10 21:00N 38°01' W 008°59'3 6.9
2019-Jun-10 20:30N 37°58' W 009°02'4 7.0
2019-Jun-10 20:00N 37°55' W 009°05'4 7.4
2019-Jun-10 19:30N 37°52' W 009°08'4 8.1
2019-Jun-10 19:00N 37°49' W 009°11'4 7.8
2019-Jun-10 18:29N 37°46' W 009°15'8 7.7
2019-Jun-10 17:29N 37°40' W 009°21'  
Track history (hours):
 
Tides and Currents Weather Stations Pressure Air Temp Water Temp Dewpoint Dewpoint Depression Visibility Wind Speed Wind Dir Waves Ship Positions

Oceanographic research ship Explora (Italy)

Detailed information on ship capabilities available from University of Delaware's Ocean Information Center.

Last reported at 2019-Jun-19 20:28 UTC. Time now 2019-Jun-19 21:46 UTC.
Position N 37°39' W 009°22'.

Length 73 m; draft 5.5 m.

Type: . MMSI: 247028700.

Date/timePositionNaut miles runAvg speedWind from/ knotsBaromVisibWave heightAir tempDewpointWater temp
2019-Jun-19 20:28N 37°39' W 009°22'1 2.5
2019-Jun-19 20:00N 37°40' W 009°21'1 2.7
2019-Jun-19 19:30N 37°41' W 009°20'1 2.9
2019-Jun-19 19:00N 37°42' W 009°19'10 2.3
2019-Jun-19 14:27N 37°33' W 009°26'1 0.1
2019-Jun-18 15:33N 37°34' W 009°24'0 0.0
2019-Jun-16 16:23N 37°34' W 009°25'2 2.5
2019-Jun-16 15:34N 37°36' W 009°24'0 2.4
2019-Jun-16 15:25N 37°36' W 009°23'1 2.4
2019-Jun-16 14:59N 37°37' W 009°23'3 2.2
2019-Jun-16 13:38N 37°40' W 009°21'1 2.1
2019-Jun-16 13:24N 37°40' W 009°21'1 2.5
2019-Jun-16 12:53N 37°41' W 009°20'1 2.7
2019-Jun-16 12:30N 37°42' W 009°19'1 2.7
2019-Jun-16 11:59N 37°43' W 009°18'1 2.8
2019-Jun-16 11:30N 37°44' W 009°17'1 2.8
2019-Jun-16 11:00N 37°45' W 009°15'2 3.1
2019-Jun-16 10:30N 37°46' W 009°14'2 3.4
2019-Jun-16 10:00N 37°48' W 009°13'2 3.5
2019-Jun-16 09:30N 37°49' W 009°11'2 3.5
2019-Jun-16 09:00N 37°50' W 009°10'2 3.2
2019-Jun-16 08:30N 37°52' W 009°09'2 3.2
2019-Jun-16 08:00N 37°53' W 009°07'1 2.8
2019-Jun-16 07:31N 37°54' W 009°08'1 2.4
2019-Jun-16 07:00N 37°54' W 009°06'2 3.8
2019-Jun-16 06:30N 37°56' W 009°04'2 3.7
2019-Jun-16 06:00N 37°57' W 009°03'2 3.9
2019-Jun-16 05:30N 37°59' W 009°01'2 3.9
2019-Jun-16 05:00N 38°00' W 008°60'1 2.1
2019-Jun-16 04:30N 38°01' W 008°59'2 3.3
2019-Jun-16 04:00N 37°60' W 009°00'2 3.5
2019-Jun-16 03:30N 37°58' W 009°02'1 2.8
2019-Jun-16 03:00N 37°57' W 009°03'1 2.8
2019-Jun-16 02:30N 37°56' W 009°04'2 3.6
2019-Jun-16 02:00N 37°55' W 009°06'2 3.2
2019-Jun-16 01:30N 37°54' W 009°07'1 2.8
2019-Jun-16 01:00N 37°53' W 009°08'1 2.5
2019-Jun-16 00:30N 37°52' W 009°09'1 2.4
2019-Jun-16 00:00N 37°51' W 009°10'1 2.4
2019-Jun-15 23:30N 37°50' W 009°11'1 2.4
2019-Jun-15 23:00N 37°49' W 009°12'1 2.3
2019-Jun-15 22:30N 37°48' W 009°13'1 2.3
2019-Jun-15 22:00N 37°47' W 009°14'1 2.2
2019-Jun-15 21:30N 37°46' W 009°15'1 2.2
2019-Jun-15 20:55N 37°45' W 009°16'6 2.3
2019-Jun-15 18:30N 37°41' W 009°20'1 1.6
2019-Jun-15 17:37N 37°39' W 009°21'1 4.8
2019-Jun-15 17:28N 37°40' W 009°21'0 0.5
2019-Jun-15 17:00N 37°40' W 009°21'0 0.1
2019-Jun-15 16:24N 37°40' W 009°21'0 0.5
2019-Jun-15 15:53N 37°40' W 009°21'0 0.8
2019-Jun-15 15:24N 37°41' W 009°21'0 0.9
2019-Jun-15 15:00N 37°41' W 009°20'2 0.3
2019-Jun-15 07:59N 37°39' W 009°22'1 2.5
2019-Jun-15 07:29N 37°40' W 009°21'1 1.2
2019-Jun-15 06:38N 37°40' W 009°22'0 2.4
2019-Jun-15 06:29N 37°40' W 009°22'1 3.0
2019-Jun-15 06:00N 37°41' W 009°21'0 0.1
2019-Jun-15 05:29N 37°41' W 009°21'3 0.3
2019-Jun-14 17:26N 37°38' W 009°21'4 8.7
2019-Jun-14 17:00N 37°41' W 009°18'4 8.7
2019-Jun-14 16:30N 37°44' W 009°15'4 8.5
2019-Jun-14 16:00N 37°47' W 009°12'510.2
2019-Jun-14 15:30N 37°51' W 009°07'510.5
2019-Jun-14 15:00N 37°54' W 009°02'510.8
2019-Jun-14 14:30N 37°58' W 008°57'4 8.4
2019-Jun-14 14:00N 38°01' W 008°54'1 1.5
2019-Jun-14 13:30N 38°00' W 008°53'1 1.4
2019-Jun-14 13:00N 37°60' W 008°53'0 0.5
2019-Jun-14 12:30N 37°60' W 008°54'1 1.0
2019-Jun-14 12:00N 37°60' W 008°53'1 1.3
2019-Jun-14 11:30N 37°60' W 008°53'1 2.5
2019-Jun-14 11:00N 38°01' W 008°53'0 0.7
2019-Jun-14 10:30N 38°01' W 008°54'1 2.7
2019-Jun-14 10:00N 38°01' W 008°55'1 2.7
2019-Jun-14 09:30N 38°01' W 008°57'1 2.6
2019-Jun-14 09:00N 38°01' W 008°55'1 2.2
2019-Jun-14 08:30N 38°01' W 008°54'1 2.4
2019-Jun-14 08:01N 38°00' W 008°53'1 2.8
2019-Jun-14 07:30N 38°00' W 008°55'2 5.0
2019-Jun-14 07:00N 38°01' W 008°58'1 2.6
2019-Jun-14 06:30N 38°01' W 008°59'1 2.9
2019-Jun-14 06:00N 37°60' W 009°00'1 2.8
2019-Jun-14 05:30N 37°59' W 009°02'1 2.8
2019-Jun-14 05:00N 37°58' W 009°03'1 2.9
2019-Jun-14 04:30N 37°57' W 009°04'1 2.8
2019-Jun-14 04:00N 37°55' W 009°05'1 2.8
2019-Jun-14 03:30N 37°54' W 009°06'1 2.7
2019-Jun-14 03:00N 37°53' W 009°07'1 2.5
2019-Jun-14 02:30N 37°52' W 009°08'1 2.5
2019-Jun-14 02:00N 37°51' W 009°09'1 2.7
2019-Jun-14 01:30N 37°50' W 009°10'2 3.2
2019-Jun-14 01:00N 37°49' W 009°12'1 3.0
2019-Jun-14 00:30N 37°48' W 009°13'1 2.8
2019-Jun-14 00:00N 37°47' W 009°14'1 2.7
2019-Jun-13 23:29N 37°46' W 009°15'1 2.6
2019-Jun-13 22:56N 37°45' W 009°16'7 2.6
2019-Jun-13 20:15N 37°39' W 009°22'1 2.6
2019-Jun-13 19:53N 37°40' W 009°21'1 2.6
2019-Jun-13 19:30N 37°41' W 009°20'2 3.0
2019-Jun-13 19:00N 37°42' W 009°19'2 3.0
2019-Jun-13 18:30N 37°43' W 009°18'2 3.0
2019-Jun-13 18:00N 37°44' W 009°17'1 2.7
2019-Jun-13 17:30N 37°45' W 009°16'2 3.0
2019-Jun-13 17:00N 37°46' W 009°14'1 2.9
2019-Jun-13 16:30N 37°48' W 009°13'1 2.6
2019-Jun-13 16:00N 37°49' W 009°12'1 2.2
2019-Jun-13 15:30N 37°49' W 009°11'1 2.6
2019-Jun-13 15:00N 37°50' W 009°10'1 2.7
2019-Jun-13 14:30N 37°51' W 009°09'1 2.6
2019-Jun-13 14:00N 37°52' W 009°08'1 2.6
2019-Jun-13 13:30N 37°53' W 009°07'1 2.6
2019-Jun-13 13:00N 37°54' W 009°06'2 3.2
2019-Jun-13 12:30N 37°56' W 009°05'2 3.1
2019-Jun-13 12:00N 37°57' W 009°03'2 3.1
2019-Jun-13 11:30N 37°58' W 009°02'2 3.2
2019-Jun-13 11:00N 37°59' W 009°01'2 3.2
2019-Jun-13 10:30N 38°01' W 008°59'0 0.2
2019-Jun-13 10:00N 38°01' W 008°60'2 3.1
2019-Jun-13 09:30N 38°01' W 008°58'2 3.2
2019-Jun-13 09:00N 38°01' W 008°56'1 2.9
2019-Jun-13 08:30N 38°01' W 008°54'1 2.9
2019-Jun-13 08:00N 37°60' W 008°53'1 1.2
2019-Jun-13 07:30N 38°00' W 008°53'1 1.4
2019-Jun-13 07:00N 37°60' W 008°53'1 2.1
2019-Jun-13 06:31N 37°59' W 008°54'0 0.7
2019-Jun-13 06:00N 37°59' W 008°53'0 0.4
2019-Jun-13 05:30N 37°60' W 008°53'0 0.3
2019-Jun-13 05:00N 37°60' W 008°53'1 2.0
2019-Jun-13 04:30N 38°01' W 008°54'2 3.1
2019-Jun-13 04:00N 38°02' W 008°55'1 1.1
2019-Jun-13 03:30N 38°01' W 008°54'1 1.1
2019-Jun-13 03:00N 38°01' W 008°54'1 1.3
2019-Jun-13 02:30N 38°00' W 008°54'1 1.3
2019-Jun-13 02:00N 37°60' W 008°53'1 1.2
2019-Jun-13 01:30N 38°00' W 008°53'2 3.1
2019-Jun-13 01:00N 38°02' W 008°54'0 0.9
2019-Jun-13 00:30N 38°02' W 008°55'1 1.8
2019-Jun-13 00:00N 38°01' W 008°55'1 1.7
2019-Jun-12 23:30N 37°60' W 008°54'1 1.8
2019-Jun-12 23:00N 37°60' W 008°53'1 2.3
2019-Jun-12 22:30N 38°01' W 008°53'1 2.6
2019-Jun-12 22:00N 38°01' W 008°54'1 1.9
2019-Jun-12 21:30N 38°02' W 008°55'0 0.8
2019-Jun-12 21:00N 38°02' W 008°54'1 1.0
2019-Jun-12 20:30N 38°02' W 008°54'0 0.9
2019-Jun-12 20:00N 38°01' W 008°54'1 1.3
2019-Jun-12 19:30N 38°01' W 008°54'1 1.2
2019-Jun-12 19:00N 38°00' W 008°54'1 1.1
2019-Jun-12 18:30N 37°60' W 008°53'1 1.1
2019-Jun-12 18:01N 37°59' W 008°53'3 6.0
2019-Jun-12 17:30N 38°02' W 008°54'1 1.2
2019-Jun-12 17:00N 38°02' W 008°54'1 1.2
2019-Jun-12 16:30N 38°01' W 008°54'1 1.5
2019-Jun-12 16:00N 38°00' W 008°53'1 1.1
2019-Jun-12 15:30N 37°60' W 008°53'1 1.0
2019-Jun-12 15:00N 37°60' W 008°53'2 3.2
2019-Jun-12 14:30N 38°01' W 008°53'3 6.9
2019-Jun-12 14:00N 38°04' W 008°55'2 3.1
2019-Jun-12 13:30N 38°06' W 008°55'2 3.6
2019-Jun-12 13:00N 38°08' W 008°56'2 4.5
2019-Jun-12 12:30N 38°10' W 008°57'2 4.9
2019-Jun-12 12:00N 38°12' W 008°58'4 7.4
2019-Jun-12 11:30N 38°15' W 008°59'1 2.7
2019-Jun-12 11:00N 38°14' W 008°59'1 2.8
2019-Jun-12 10:30N 38°13' W 008°59'1 2.7
2019-Jun-12 10:00N 38°12' W 008°58'1 2.4
2019-Jun-12 09:30N 38°10' W 008°57'1 2.2
2019-Jun-12 09:00N 38°09' W 008°57'1 2.1
2019-Jun-12 08:30N 38°09' W 008°56'1 1.9
2019-Jun-12 08:00N 38°08' W 008°55'1 1.8
2019-Jun-12 07:30N 38°07' W 008°55'1 1.7
2019-Jun-12 07:00N 38°06' W 008°55'1 1.8
2019-Jun-12 06:30N 38°05' W 008°54'1 2.9
2019-Jun-12 06:00N 38°06' W 008°55'2 4.0
2019-Jun-12 05:30N 38°08' W 008°56'2 4.0
2019-Jun-12 05:01N 38°10' W 008°57'1 2.6
2019-Jun-12 04:30N 38°09' W 008°56'1 2.3
2019-Jun-12 04:00N 38°08' W 008°56'1 1.9
2019-Jun-12 03:30N 38°07' W 008°55'1 1.3
2019-Jun-12 03:01N 38°06' W 008°55'4 3.8
2019-Jun-12 02:00N 38°10' W 008°57'2 3.7
2019-Jun-12 01:30N 38°12' W 008°58'2 3.5
2019-Jun-12 01:00N 38°13' W 008°59'2 3.6
2019-Jun-12 00:30N 38°15' W 008°60'2 3.7
2019-Jun-12 00:00N 38°17' W 009°01'2 3.7
2019-Jun-11 23:30N 38°19' W 009°01'2 3.9
2019-Jun-11 23:00N 38°20' W 009°02'0 0.5
2019-Jun-11 22:30N 38°20' W 009°02'1 2.0
2019-Jun-11 22:00N 38°19' W 009°02'1 2.4
2019-Jun-11 21:30N 38°18' W 009°01'1 2.3
2019-Jun-11 21:00N 38°17' W 009°01'1 2.1
2019-Jun-11 20:30N 38°16' W 009°00'1 2.1
2019-Jun-11 20:00N 38°15' W 008°60'1 2.2
2019-Jun-11 19:30N 38°14' W 008°59'1 2.1
2019-Jun-11 19:00N 38°13' W 008°59'1 1.9
2019-Jun-11 18:30N 38°12' W 008°58'1 2.0
2019-Jun-11 18:00N 38°11' W 008°58'1 2.3
2019-Jun-11 17:30N 38°10' W 008°57'1 2.0
2019-Jun-11 17:00N 38°09' W 008°56'1 1.5
2019-Jun-11 16:30N 38°09' W 008°56'1 1.8
2019-Jun-11 16:00N 38°08' W 008°56'1 1.8
2019-Jun-11 15:30N 38°07' W 008°56'1 1.5
2019-Jun-11 15:00N 38°06' W 008°56'1 1.6
2019-Jun-11 14:30N 38°05' W 008°55'1 1.5
2019-Jun-11 14:00N 38°05' W 008°55'1 1.7
2019-Jun-11 13:30N 38°04' W 008°55'1 1.9
2019-Jun-11 13:00N 38°03' W 008°55'1 2.0
2019-Jun-11 12:30N 38°02' W 008°54'1 2.4
2019-Jun-11 12:00N 38°01' W 008°54'1 1.2
2019-Jun-11 11:30N 38°00' W 008°54'1 1.5
2019-Jun-11 11:00N 37°60' W 008°53'1 1.0
2019-Jun-11 10:30N 37°59' W 008°53'1 2.0
2019-Jun-11 10:00N 37°60' W 008°52'1 1.1
2019-Jun-11 09:30N 37°60' W 008°52'0 0.9
2019-Jun-11 09:00N 37°59' W 008°53'1 1.6
2019-Jun-11 08:30N 37°60' W 008°52'1 1.1
2019-Jun-11 08:00N 37°59' W 008°53'1 1.5
2019-Jun-11 07:30N 38°00' W 008°52'1 2.1
2019-Jun-11 07:00N 37°59' W 008°53'0 0.3
2019-Jun-11 06:30N 37°59' W 008°53'1 1.7
2019-Jun-11 06:01N 37°60' W 008°53'1 1.3
2019-Jun-11 05:30N 37°60' W 008°52'0 0.9
2019-Jun-11 05:00N 37°60' W 008°53'0 0.5
2019-Jun-11 04:30N 37°60' W 008°53'0 0.8
2019-Jun-11 04:00N 37°60' W 008°53'0 0.3
2019-Jun-11 03:30N 37°60' W 008°53'1 1.1
2019-Jun-11 03:00N 37°60' W 008°52'0 1.0
2019-Jun-11 02:31N 38°00' W 008°52'1 1.2
2019-Jun-11 02:00N 37°60' W 008°53'0 0.8
2019-Jun-11 01:30N 37°60' W 008°54'0 0.7
2019-Jun-11 01:01N 37°60' W 008°54'1 1.8
2019-Jun-11 00:30N 38°00' W 008°53'1 1.2
2019-Jun-11 00:00N 37°60' W 008°54'1 1.6
2019-Jun-10 23:30N 37°59' W 008°53'0 1.0
2019-Jun-10 23:00N 37°60' W 008°53'1 1.4
2019-Jun-10 22:31N 38°00' W 008°53'0 0.8
2019-Jun-10 22:00N 37°60' W 008°53'2 3.8
2019-Jun-10 21:30N 38°01' W 008°55'4 7.2
2019-Jun-10 21:00N 38°01' W 008°59'3 6.9
2019-Jun-10 20:30N 37°58' W 009°02'4 7.0
2019-Jun-10 20:00N 37°55' W 009°05'4 7.4
2019-Jun-10 19:30N 37°52' W 009°08'4 8.1
2019-Jun-10 19:00N 37°49' W 009°11'4 7.8
2019-Jun-10 18:29N 37°46' W 009°15'8 7.7
2019-Jun-10 17:29N 37°40' W 009°21'  

Dump ship's entire track history